createdAt,value
2023-05-15T00:00:04.068Z,12.90
2023-05-15T00:05:09.624Z,12.80
2023-05-15T00:10:12.386Z,12.70
2023-05-15T00:15:14.243Z,12.60
2023-05-15T00:20:16.012Z,12.70
2023-05-15T00:25:19.551Z,12.60
2023-05-15T00:30:21.403Z,12.50
2023-05-15T00:35:23.591Z,12.50
2023-05-15T00:40:26.740Z,12.40
2023-05-15T00:45:30.327Z,12.40
2023-05-15T00:50:33.513Z,12.40
2023-05-15T00:55:36.502Z,12.50
2023-05-15T01:00:39.004Z,12.40
2023-05-15T01:05:41.084Z,12.30
2023-05-15T01:10:44.172Z,12.30
2023-05-15T01:15:46.221Z,12.40
2023-05-15T01:20:53.751Z,12.20
2023-05-15T01:26:30.541Z,12.20
2023-05-15T01:31:35.317Z,12.20
2023-05-15T01:36:43.348Z,12.10
2023-05-15T01:41:51.651Z,12.10
2023-05-15T01:46:57.980Z,12.10
2023-05-15T01:52:13.841Z,12.10
2023-05-15T01:57:16.403Z,12.10
2023-05-15T02:02:19.645Z,12.00
2023-05-15T02:07:22.145Z,12.10
2023-05-15T02:12:24.572Z,12.00
2023-05-15T02:17:28.034Z,12.10
2023-05-15T02:22:29.811Z,12.10
2023-05-15T02:27:42.799Z,12.20
2023-05-15T02:32:54.043Z,12.10
2023-05-15T02:38:00.264Z,12.10
2023-05-15T02:43:03.026Z,12.20
2023-05-15T02:48:05.719Z,12.00
2023-05-15T02:53:09.835Z,11.90
2023-05-15T02:58:11.812Z,11.90
2023-05-15T03:03:13.571Z,12.00
2023-05-15T03:08:15.357Z,11.80
2023-05-15T03:13:17.102Z,11.80
2023-05-15T03:18:19.675Z,11.90
2023-05-15T03:23:21.590Z,11.80
2023-05-15T03:28:23.384Z,11.70
2023-05-15T03:33:25.647Z,11.60
2023-05-15T03:38:27.537Z,11.50
2023-05-15T03:43:29.291Z,11.60
2023-05-15T03:48:31.234Z,11.60
2023-05-15T03:53:33.025Z,11.60
2023-05-15T03:58:34.795Z,11.70
2023-05-15T04:03:36.592Z,11.70
2023-05-15T04:08:39.660Z,11.60
2023-05-15T04:13:42.456Z,11.50
2023-05-15T04:18:44.255Z,11.40
2023-05-15T04:23:46.005Z,11.60
2023-05-15T04:29:00.168Z,11.50
2023-05-15T04:34:06.023Z,11.50
2023-05-15T04:39:08.420Z,11.10
2023-05-15T04:44:10.445Z,10.80
2023-05-15T04:49:12.313Z,11.00
2023-05-15T04:54:14.133Z,11.30
2023-05-15T04:59:16.616Z,11.40
2023-05-15T05:04:21.058Z,11.20
2023-05-15T05:09:22.962Z,11.20
2023-05-15T05:14:24.738Z,11.40
2023-05-15T05:19:28.343Z,11.50
2023-05-15T05:24:30.296Z,11.70
2023-05-15T05:29:32.435Z,11.80
2023-05-15T05:34:34.450Z,11.50
2023-05-15T05:39:36.201Z,11.30
2023-05-15T05:44:37.964Z,11.30
2023-05-15T05:49:40.563Z,11.60
2023-05-15T05:54:42.724Z,11.70
2023-05-15T05:59:45.967Z,11.60
2023-05-15T06:04:47.723Z,11.80
2023-05-15T06:09:49.705Z,11.80
2023-05-15T06:14:51.684Z,11.80
2023-05-15T06:19:54.632Z,11.80
2023-05-15T06:24:56.464Z,11.80
2023-05-15T06:29:58.539Z,11.80
2023-05-15T06:35:00.362Z,11.80
2023-05-15T06:40:02.207Z,11.80
2023-05-15T06:45:04.603Z,11.90
2023-05-15T06:50:07.041Z,12.00
2023-05-15T06:55:09.120Z,12.00
2023-05-15T07:00:11.595Z,11.90
2023-05-15T07:05:14.567Z,12.10
2023-05-15T07:10:16.692Z,12.20
2023-05-15T07:15:18.781Z,12.60
2023-05-15T07:20:20.793Z,12.70
2023-05-15T07:25:23.224Z,12.90
2023-05-15T07:30:25.798Z,13.10
2023-05-15T07:35:28.035Z,12.80
2023-05-15T07:40:30.324Z,12.60
2023-05-15T07:45:32.138Z,12.80
2023-05-15T07:50:35.042Z,12.80
2023-05-15T07:55:36.804Z,12.60
2023-05-15T08:00:38.726Z,12.80
2023-05-15T08:05:40.554Z,12.50
2023-05-15T08:10:42.341Z,13.20
2023-05-15T08:15:44.371Z,13.70
2023-05-15T08:20:46.548Z,14.00
2023-05-15T08:25:48.318Z,13.80
2023-05-15T08:30:50.118Z,13.70
2023-05-15T08:35:52.584Z,13.60
2023-05-15T08:40:57.752Z,14.40
2023-05-15T08:46:00.442Z,14.70
2023-05-15T08:51:03.739Z,14.40
2023-05-15T08:56:06.110Z,14.80
2023-05-15T09:01:08.426Z,15.40
2023-05-15T09:06:10.608Z,14.60
2023-05-15T09:11:13.683Z,15.50
2023-05-15T09:16:15.601Z,16.10
2023-05-15T09:21:29.025Z,15.70
2023-05-15T09:26:30.929Z,16.00
2023-05-15T09:31:36.464Z,16.40
2023-05-15T09:36:44.260Z,16.10
2023-05-15T09:41:46.077Z,16.40
2023-05-15T09:46:48.724Z,15.60
2023-05-15T09:51:50.817Z,15.40
2023-05-15T09:56:53.853Z,16.10
2023-05-15T10:01:55.698Z,16.30
2023-05-15T10:06:57.511Z,16.10
2023-05-15T10:11:59.510Z,16.70
2023-05-15T10:17:01.555Z,16.70
2023-05-15T10:22:04.477Z,16.40
2023-05-15T10:27:08.981Z,17.10
2023-05-15T10:32:12.173Z,17.20
2023-05-15T10:37:14.994Z,17.30
2023-05-15T10:42:18.048Z,17.60
2023-05-15T10:47:20.503Z,17.50
2023-05-15T10:52:22.479Z,17.70
2023-05-15T10:57:24.346Z,17.70
2023-05-15T11:02:29.468Z,18.50
2023-05-15T11:07:31.587Z,18.30
2023-05-15T11:13:09.103Z,17.80
2023-05-15T11:18:11.086Z,17.80
2023-05-15T11:23:12.959Z,17.50
2023-05-15T11:28:22.852Z,17.00
2023-05-15T11:33:24.773Z,16.70
2023-05-15T11:38:27.230Z,16.80
2023-05-15T11:43:30.760Z,16.70
2023-05-15T11:48:35.017Z,16.70
2023-05-15T11:53:39.147Z,16.80
2023-05-15T11:58:43.407Z,16.40
2023-05-15T12:03:49.191Z,16.50
2023-05-15T12:08:52.650Z,16.40
2023-05-15T12:13:55.269Z,16.40
2023-05-15T12:18:58.031Z,16.10
2023-05-15T12:24:07.775Z,16.10
2023-05-15T12:29:10.577Z,16.20
2023-05-15T12:34:12.452Z,16.00
2023-05-15T12:39:14.288Z,15.90
2023-05-15T12:44:19.758Z,16.00
2023-05-15T12:49:22.809Z,16.10
2023-05-15T12:54:24.775Z,15.90
2023-05-15T12:59:26.655Z,15.80
2023-05-15T13:04:28.453Z,15.70
2023-05-15T13:09:30.676Z,15.70
2023-05-15T13:14:33.526Z,15.70
2023-05-15T13:19:35.542Z,15.60
2023-05-15T13:24:37.425Z,15.50
2023-05-15T13:29:39.195Z,15.60
2023-05-15T13:34:41.068Z,15.20
2023-05-15T13:39:42.852Z,15.50
2023-05-15T13:44:44.656Z,15.50
2023-05-15T13:49:46.599Z,15.10
2023-05-15T13:54:48.465Z,14.90
2023-05-15T13:59:50.337Z,14.70
2023-05-15T14:04:55.778Z,14.80
2023-05-15T14:09:58.282Z,14.70
2023-05-15T14:15:01.129Z,14.60
2023-05-15T14:20:03.135Z,14.50
2023-05-15T14:25:06.261Z,14.50
2023-05-15T14:30:08.663Z,14.40
2023-05-15T14:35:10.766Z,14.40
2023-05-15T14:40:13.043Z,14.20
2023-05-15T14:45:14.976Z,14.30
2023-05-15T14:50:16.826Z,14.20
2023-05-15T14:55:22.653Z,14.10
2023-05-15T15:00:24.574Z,14.20
2023-05-15T15:05:26.450Z,14.00
2023-05-15T15:10:28.596Z,14.10
2023-05-15T15:15:31.717Z,14.10
2023-05-15T15:20:36.360Z,13.90
2023-05-15T15:25:38.198Z,13.90
2023-05-15T15:30:40.171Z,13.90
2023-05-15T15:35:41.933Z,13.90
2023-05-15T15:40:43.926Z,13.90
2023-05-15T15:45:46.113Z,13.60
2023-05-15T15:50:47.980Z,13.70
2023-05-15T15:55:49.889Z,13.80
2023-05-15T16:00:51.763Z,13.70
2023-05-15T16:05:53.589Z,13.60
2023-05-15T16:10:55.503Z,13.40
2023-05-15T16:15:57.370Z,13.40
2023-05-15T16:20:59.230Z,13.40
2023-05-15T16:26:02.347Z,13.40
2023-05-15T16:31:05.017Z,13.50
2023-05-15T16:36:07.008Z,13.40
2023-05-15T16:41:09.134Z,13.50
2023-05-15T16:46:10.974Z,13.40
2023-05-15T16:51:12.955Z,13.50
2023-05-15T16:56:14.771Z,13.50
2023-05-15T17:01:16.750Z,13.50
2023-05-15T17:06:18.650Z,13.40
2023-05-15T17:11:21.605Z,13.40
2023-05-15T17:16:23.491Z,13.30
2023-05-15T17:21:25.431Z,13.30
2023-05-15T17:26:27.277Z,13.10
2023-05-15T17:31:29.624Z,13.10
2023-05-15T17:36:32.346Z,13.10
2023-05-15T17:41:34.238Z,13.00
2023-05-15T17:46:36.083Z,12.90
2023-05-15T17:51:38.334Z,12.90
2023-05-15T17:56:40.117Z,12.80
2023-05-15T18:01:42.100Z,12.80
2023-05-15T18:06:43.963Z,12.60
2023-05-15T18:11:45.766Z,12.80
2023-05-15T18:16:47.620Z,12.80
2023-05-15T18:21:49.486Z,12.70
2023-05-15T18:26:51.465Z,12.80
2023-05-15T18:31:53.358Z,12.80
2023-05-15T18:36:55.272Z,12.70
2023-05-15T18:41:57.094Z,12.70
2023-05-15T18:46:58.919Z,12.50
2023-05-15T18:52:00.926Z,12.50
2023-05-15T18:57:02.801Z,12.40
2023-05-15T19:02:05.025Z,12.20
2023-05-15T19:07:07.175Z,12.30
2023-05-15T19:12:09.076Z,12.20
2023-05-15T19:17:11.272Z,12.10
2023-05-15T19:22:13.663Z,12.00
2023-05-15T19:27:15.493Z,12.00
2023-05-15T19:32:17.404Z,12.10
2023-05-15T19:37:19.907Z,12.00
2023-05-15T19:42:21.708Z,11.80
2023-05-15T19:47:23.586Z,11.80
2023-05-15T19:52:25.715Z,11.80
2023-05-15T19:57:27.529Z,11.90
2023-05-15T20:02:29.373Z,11.80
2023-05-15T20:07:31.205Z,11.90
2023-05-15T20:12:33.146Z,11.80
2023-05-15T20:17:35.170Z,11.80
2023-05-15T20:22:37.698Z,11.70
2023-05-15T20:27:40.916Z,11.70
2023-05-15T20:32:42.907Z,11.70
2023-05-15T20:37:45.434Z,11.80
2023-05-15T20:42:47.204Z,11.80
2023-05-15T20:47:49.783Z,11.80
2023-05-15T20:52:51.593Z,11.70
2023-05-15T20:57:53.559Z,11.70
2023-05-15T21:02:55.571Z,11.80
2023-05-15T21:07:58.182Z,11.70
2023-05-15T21:12:59.960Z,11.70
2023-05-15T21:18:02.075Z,11.50
2023-05-15T21:23:03.875Z,11.70
2023-05-15T21:28:05.791Z,11.60
2023-05-15T21:33:07.733Z,11.50
2023-05-15T21:38:09.675Z,11.50
2023-05-15T21:43:11.470Z,11.50
2023-05-15T21:48:13.225Z,11.40
2023-05-15T21:53:15.412Z,11.30
2023-05-15T21:58:17.608Z,11.50
2023-05-15T22:03:20.777Z,11.50
2023-05-15T22:08:22.806Z,11.50
2023-05-15T22:13:24.886Z,11.40
2023-05-15T22:18:28.899Z,11.30
2023-05-15T22:23:31.500Z,11.30
2023-05-15T22:28:33.575Z,11.40
2023-05-15T22:33:35.535Z,11.40
2023-05-15T22:38:37.370Z,11.30
2023-05-15T22:43:39.197Z,11.30
2023-05-15T22:48:41.446Z,11.30
2023-05-15T22:53:43.213Z,11.30
2023-05-15T22:58:45.087Z,11.20
2023-05-15T23:03:47.272Z,11.10
2023-05-15T23:08:50.501Z,11.00
2023-05-15T23:13:52.328Z,11.00
2023-05-15T23:18:57.926Z,11.00
2023-05-15T23:23:59.933Z,10.90
2023-05-15T23:29:01.753Z,10.90
2023-05-15T23:34:03.590Z,10.90
2023-05-15T23:39:05.419Z,10.80
2023-05-15T23:44:07.267Z,10.80
2023-05-15T23:49:09.324Z,10.80
2023-05-15T23:54:11.656Z,10.60
2023-05-15T23:59:13.850Z,10.60
